Time;durP1;ratioP1;P1;durP2;ratioP2;P2;SDS_P1;SDS_P2;PMS_P1;PMS_P2;Temp;Humidity;BMP_temperature;BMP_pressure;BME280_temperature;BME280_humidity;BME280_pressure;Samples;Min_cycle;Max_cycle;Signal;HPM_P1;HPM_P2
2023/06/21 00:02:19;;;;;;;;;;;21.60;87.10;;;;;;5098849;28;19964;-88
2023/06/21 00:04:44;;;;;;;;;;;21.60;86.50;;;;;;5113464;28;19920;-89
2023/06/21 00:07:10;;;;;;;;;;;21.60;86.50;;;;;;5116627;28;20002;-88
2023/06/21 00:09:35;;;;;;;;;;;21.50;86.30;;;;;;5117317;28;19919;-88
2023/06/21 00:12:01;;;;;;;;;;;21.40;86.50;;;;;;5099168;28;19972;-88
2023/06/21 00:14:26;;;;;;;;;;;21.50;86.80;;;;;;5097671;28;19912;-87
2023/06/21 00:16:52;;;;;;;;;;;21.50;86.70;;;;;;5092064;28;19919;-88
2023/06/21 00:19:18;;;;;;;;;;;21.50;86.40;;;;;;5117505;28;19927;-88
2023/06/21 00:21:44;;;;;;;;;;;21.50;86.70;;;;;;5099393;28;19912;-88
2023/06/21 00:24:09;;;;;;;;;;;21.30;87.00;;;;;;5093773;28;20524;-88
2023/06/21 00:26:34;;;;;;;;;;;21.30;86.70;;;;;;5106704;28;20369;-88
2023/06/21 00:29:00;;;;;;;;;;;21.20;87.10;;;;;;5096038;28;19976;-88
2023/06/21 00:31:25;;;;;;;;;;;21.20;87.20;;;;;;5117076;28;19912;-87
2023/06/21 00:33:51;;;;;;;;;;;21.30;87.30;;;;;;5096995;28;19922;-88
2023/06/21 00:36:16;;;;;;;;;;;21.30;86.60;;;;;;5098249;28;20005;-89
2023/06/21 00:38:42;;;;;;;;;;;21.30;86.80;;;;;;5097614;28;20357;-89
2023/06/21 00:41:07;;;;;;;;;;;21.10;86.80;;;;;;5098745;28;19916;-89
2023/06/21 00:43:33;;;;;;;;;;;21.20;86.00;;;;;;5100556;28;20040;-89
2023/06/21 00:45:59;;;;;;;;;;;21.20;85.90;;;;;;5098686;28;20372;-88
2023/06/21 00:48:28;;;;;;;;;;;21.20;86.40;;;;;;5119901;28;19972;-88
2023/06/21 00:50:53;;;;;;;;;;;21.20;86.00;;;;;;5100915;28;19954;-89
2023/06/21 00:53:21;;;;;;;;;;;21.00;86.60;;;;;;5102739;28;20361;-89
2023/06/21 00:55:46;;;;;;;;;;;21.00;86.50;;;;;;5101271;28;20296;-89
2023/06/21 00:58:12;;;;;;;;;;;20.90;86.80;;;;;;5120193;28;19935;-88
2023/06/21 01:00:37;;;;;;;;;;;20.90;86.90;;;;;;5101984;28;19923;-88
2023/06/21 01:03:03;;;;;;;;;;;20.90;87.00;;;;;;5102599;28;20006;-89
2023/06/21 01:05:30;;;;;;;;;;;21.00;86.00;;;;;;5102620;28;20016;-89
2023/06/21 01:08:01;;;;;;;;;;;20.90;86.20;;;;;;5100583;28;19911;-88
2023/06/21 01:10:30;;;;;;;;;;;21.00;86.10;;;;;;5101845;28;20301;-89
2023/06/21 01:13:14;;;;;;;;;;;20.90;85.90;;;;;;5099800;28;19912;-89
2023/06/21 01:15:44;;;;;;;;;;;21.00;84.80;;;;;;5099164;28;19911;-88
2023/06/21 01:18:12;;;;;;;;;;;21.00;84.80;;;;;;5099235;28;19915;-89
2023/06/21 01:20:38;;;;;;;;;;;20.90;85.20;;;;;;5096673;28;19915;-88
2023/06/21 01:23:23;;;;;;;;;;;20.90;85.00;;;;;;5098335;28;19912;-88
2023/06/21 01:25:48;;;;;;;;;;;20.90;84.70;;;;;;5095837;28;19912;-89
2023/06/21 01:28:26;;;;;;;;;;;20.80;85.00;;;;;;5099922;28;19923;-88
2023/06/21 01:30:54;;;;;;;;;;;20.70;85.80;;;;;;5094922;28;19915;-88
2023/06/21 01:33:20;;;;;;;;;;;20.70;86.00;;;;;;5093776;28;20302;-88
2023/06/21 01:35:45;;;;;;;;;;;20.70;85.70;;;;;;5096646;28;19994;-87
2023/06/21 01:38:11;;;;;;;;;;;20.60;85.70;;;;;;5096955;28;19911;-88
2023/06/21 01:40:37;;;;;;;;;;;20.60;86.10;;;;;;5096199;28;19958;-87
2023/06/21 01:43:03;;;;;;;;;;;20.60;85.90;;;;;;5099250;28;19908;-89
2023/06/21 01:45:29;;;;;;;;;;;20.60;85.50;;;;;;5096595;28;19912;-88
2023/06/21 01:47:55;;;;;;;;;;;20.60;85.30;;;;;;5096224;28;19919;-88
2023/06/21 01:50:21;;;;;;;;;;;20.60;85.70;;;;;;5094898;28;20200;-88
2023/06/21 01:52:47;;;;;;;;;;;20.60;85.70;;;;;;5092059;28;19916;-88
2023/06/21 01:55:12;;;;;;;;;;;20.60;85.60;;;;;;5094892;28;19916;-88
2023/06/21 01:57:39;;;;;;;;;;;20.60;85.60;;;;;;5096288;28;19915;-88
2023/06/21 02:00:17;;;;;;;;;;;20.70;85.20;;;;;;5116961;28;19986;-89
2023/06/21 02:02:50;;;;;;;;;;;20.70;85.20;;;;;;5095847;28;20276;-88
2023/06/21 02:05:16;;;;;;;;;;;20.70;85.00;;;;;;5116309;28;20317;-88
2023/06/21 02:07:45;;;;;;;;;;;20.60;84.90;;;;;;5114063;28;19915;-88
2023/06/21 02:10:12;;;;;;;;;;;20.60;84.90;;;;;;5114991;28;20003;-88
2023/06/21 02:12:39;;;;;;;;;;;20.60;84.60;;;;;;5099108;28;19930;-88
2023/06/21 02:15:06;;;;;;;;;;;20.50;84.90;;;;;;5094001;28;19971;-88
2023/06/21 02:17:31;;;;;;;;;;;20.50;84.90;;;;;;5092633;28;19947;-88
2023/06/21 02:19:56;;;;;;;;;;;20.40;84.70;;;;;;5090666;28;19915;-88
2023/06/21 02:22:22;;;;;;;;;;;20.40;84.50;;;;;;5092914;28;19922;-88
2023/06/21 02:24:47;;;;;;;;;;;20.40;84.90;;;;;;5094222;28;20006;-88
2023/06/21 02:27:13;;;;;;;;;;;20.30;85.00;;;;;;5091271;28;19938;-88
2023/06/21 02:29:38;;;;;;;;;;;20.30;84.90;;;;;;5103480;28;19959;-88
2023/06/21 02:32:04;;;;;;;;;;;20.30;84.90;;;;;;5115693;28;19919;-89
2023/06/21 02:34:29;;;;;;;;;;;20.20;85.30;;;;;;5112757;28;19912;-88
2023/06/21 02:36:55;;;;;;;;;;;20.10;85.70;;;;;;5096647;28;20000;-88
2023/06/21 02:39:24;;;;;;;;;;;20.20;85.10;;;;;;5089282;28;19919;-88
2023/06/21 02:41:51;;;;;;;;;;;20.20;85.50;;;;;;5093328;28;19919;-88
2023/06/21 02:44:17;;;;;;;;;;;20.20;85.00;;;;;;5095128;28;19916;-88
2023/06/21 02:46:42;;;;;;;;;;;20.30;84.50;;;;;;5106459;28;19981;-88
2023/06/21 02:49:08;;;;;;;;;;;20.20;84.50;;;;;;5098966;28;20289;-88
2023/06/21 02:51:33;;;;;;;;;;;20.20;84.70;;;;;;5096635;28;19916;-88
2023/06/21 02:53:59;;;;;;;;;;;20.30;84.10;;;;;;5098727;28;19907;-87
2023/06/21 02:56:24;;;;;;;;;;;20.20;84.30;;;;;;5096277;28;19950;-88
2023/06/21 02:58:50;;;;;;;;;;;20.10;84.80;;;;;;5099286;28;19934;-88
2023/06/21 03:01:17;;;;;;;;;;;20.10;84.90;;;;;;5131754;27;21229;-88
2023/06/21 03:03:44;;;;;;;;;;;20.10;84.70;;;;;;5118034;28;20427;-88
2023/06/21 03:06:11;;;;;;;;;;;20.10;84.80;;;;;;5114851;28;19916;-88
2023/06/21 03:08:38;;;;;;;;;;;20.10;85.10;;;;;;5098421;28;19912;-88
2023/06/21 03:11:05;;;;;;;;;;;20.10;84.80;;;;;;5094910;28;19923;-88
2023/06/21 03:13:31;;;;;;;;;;;20.10;85.30;;;;;;5096174;28;19912;-88
2023/06/21 03:15:56;;;;;;;;;;;20.10;84.80;;;;;;5114911;28;19919;-87
2023/06/21 03:18:22;;;;;;;;;;;20.10;84.50;;;;;;5096810;28;19916;-88
2023/06/21 03:20:50;;;;;;;;;;;20.10;84.40;;;;;;5094984;28;19922;-88
2023/06/21 03:23:15;;;;;;;;;;;20.00;85.10;;;;;;5093103;28;19976;-88
2023/06/21 03:25:42;;;;;;;;;;;20.00;85.10;;;;;;5102400;28;19912;-88
2023/06/21 03:28:07;;;;;;;;;;;20.00;84.70;;;;;;5096388;28;19943;-88
2023/06/21 03:30:32;;;;;;;;;;;20.00;84.40;;;;;;5097040;28;19920;-88
2023/06/21 03:32:58;;;;;;;;;;;20.00;85.10;;;;;;5096539;28;19992;-88
2023/06/21 03:35:24;;;;;;;;;;;20.00;85.00;;;;;;5096104;28;19916;-88
2023/06/21 03:37:50;;;;;;;;;;;19.90;85.30;;;;;;5097065;28;19976;-88
2023/06/21 03:40:16;;;;;;;;;;;20.00;84.80;;;;;;5099385;28;19955;-88
2023/06/21 03:42:42;;;;;;;;;;;19.90;85.40;;;;;;5114607;28;20450;-88
2023/06/21 03:45:08;;;;;;;;;;;19.90;85.40;;;;;;5112132;28;19959;-88
2023/06/21 03:47:39;;;;;;;;;;;19.90;85.80;;;;;;5096644;28;20004;-88
2023/06/21 03:50:05;;;;;;;;;;;20.00;85.30;;;;;;5090808;28;19915;-88
2023/06/21 03:52:30;;;;;;;;;;;20.00;85.20;;;;;;5093306;28;19912;-88
2023/06/21 03:54:56;;;;;;;;;;;20.00;85.20;;;;;;5092004;28;19947;-87
2023/06/21 03:57:21;;;;;;;;;;;20.00;85.10;;;;;;5095120;28;19936;-88
2023/06/21 03:59:47;;;;;;;;;;;20.00;85.50;;;;;;5098193;28;20007;-88
2023/06/21 04:02:12;;;;;;;;;;;20.00;84.90;;;;;;5113978;28;19916;-87
2023/06/21 04:04:38;;;;;;;;;;;19.90;84.50;;;;;;5114835;28;19912;-87
2023/06/21 04:07:04;;;;;;;;;;;20.00;85.20;;;;;;5095449;28;20028;-88
2023/06/21 04:09:29;;;;;;;;;;;19.90;85.40;;;;;;5095479;28;20405;-88
2023/06/21 04:11:55;;;;;;;;;;;20.00;85.20;;;;;;5111738;28;19911;-87
2023/06/21 04:14:20;;;;;;;;;;;20.00;85.20;;;;;;5097605;28;20308;-87
2023/06/21 04:16:46;;;;;;;;;;;20.00;84.90;;;;;;5113199;28;19988;-87
2023/06/21 04:19:11;;;;;;;;;;;20.10;85.00;;;;;;5095622;28;19926;-87
2023/06/21 04:21:38;;;;;;;;;;;20.00;84.90;;;;;;5096391;28;19912;-87
2023/06/21 04:24:03;;;;;;;;;;;20.00;85.10;;;;;;5095725;28;19915;-87
2023/06/21 04:26:29;;;;;;;;;;;20.10;84.60;;;;;;5114626;28;19978;-88
2023/06/21 04:28:54;;;;;;;;;;;20.20;84.40;;;;;;5097833;28;19912;-88
2023/06/21 04:31:20;;;;;;;;;;;20.20;84.40;;;;;;5095215;28;19912;-88
2023/06/21 04:33:45;;;;;;;;;;;20.30;84.20;;;;;;5115901;28;19919;-87
2023/06/21 04:36:11;;;;;;;;;;;20.30;84.40;;;;;;5097843;28;19956;-87
2023/06/21 04:38:37;;;;;;;;;;;20.20;84.70;;;;;;5090470;28;20297;-88
2023/06/21 04:41:02;;;;;;;;;;;20.40;84.20;;;;;;5108290;28;20011;-88
2023/06/21 04:43:28;;;;;;;;;;;20.40;84.10;;;;;;5109663;28;19916;-88
2023/06/21 04:45:53;;;;;;;;;;;20.50;83.50;;;;;;5090880;28;19969;-88
2023/06/21 04:48:19;;;;;;;;;;;20.50;83.60;;;;;;5122459;28;19912;-88
2023/06/21 04:50:46;;;;;;;;;;;20.60;83.70;;;;;;5104130;28;19991;-87
2023/06/21 04:53:12;;;;;;;;;;;20.50;84.10;;;;;;5100149;28;19912;-88
2023/06/21 04:55:42;;;;;;;;;;;20.50;84.20;;;;;;5097486;28;19908;-88
2023/06/21 04:58:08;;;;;;;;;;;20.60;84.20;;;;;;5096046;28;19923;-87
2023/06/21 05:00:35;;;;;;;;;;;20.60;83.80;;;;;;5095069;28;19915;-90
2023/06/21 05:03:00;;;;;;;;;;;20.70;83.20;;;;;;5097117;28;19915;-88
2023/06/21 05:05:25;;;;;;;;;;;20.80;83.20;;;;;;5115397;28;20019;-87
2023/06/21 05:07:51;;;;;;;;;;;20.80;83.10;;;;;;5092889;28;19911;-86
2023/06/21 05:10:16;;;;;;;;;;;20.80;83.30;;;;;;5093987;28;19951;-87
2023/06/21 05:12:42;;;;;;;;;;;20.70;83.60;;;;;;5092859;28;20003;-85
2023/06/21 05:15:08;;;;;;;;;;;20.80;83.20;;;;;;5084025;28;20032;-86
2023/06/21 05:17:33;;;;;;;;;;;20.90;83.20;;;;;;5089742;28;19926;-85
2023/06/21 05:19:59;;;;;;;;;;;20.90;83.20;;;;;;5088223;28;19926;-85
2023/06/21 05:22:24;;;;;;;;;;;21.00;83.40;;;;;;5084283;28;20048;-86
2023/06/21 05:24:50;;;;;;;;;;;21.10;82.70;;;;;;5087092;28;19918;-85
2023/06/21 05:27:15;;;;;;;;;;;21.00;83.00;;;;;;5094412;28;19916;-85
2023/06/21 05:29:41;;;;;;;;;;;21.10;82.80;;;;;;5101602;28;19920;-86
2023/06/21 05:32:07;;;;;;;;;;;21.10;82.90;;;;;;5090855;28;20413;-87
2023/06/21 05:34:32;;;;;;;;;;;21.20;82.80;;;;;;5084495;28;19915;-88
2023/06/21 05:36:57;;;;;;;;;;;21.30;82.70;;;;;;5108690;28;20403;-89
2023/06/21 05:39:23;;;;;;;;;;;21.30;83.10;;;;;;5086512;28;19916;-88
2023/06/21 05:41:48;;;;;;;;;;;21.20;82.70;;;;;;5089518;28;20010;-87
2023/06/21 05:44:14;;;;;;;;;;;21.30;82.50;;;;;;5086133;28;20373;-88
2023/06/21 05:46:40;;;;;;;;;;;21.30;82.50;;;;;;5092022;28;19908;-88
2023/06/21 05:49:06;;;;;;;;;;;21.40;82.60;;;;;;5092998;28;19918;-88
2023/06/21 05:51:31;;;;;;;;;;;21.50;82.30;;;;;;5091991;28;19916;-88
2023/06/21 05:53:57;;;;;;;;;;;21.70;81.50;;;;;;5111306;28;19947;-88
2023/06/21 05:56:26;;;;;;;;;;;21.70;81.10;;;;;;5087324;28;20432;-88
2023/06/21 05:58:52;;;;;;;;;;;21.80;81.70;;;;;;5107464;28;19912;-88
2023/06/21 06:01:18;;;;;;;;;;;21.70;80.70;;;;;;5090404;28;19961;-88
2023/06/21 06:03:43;;;;;;;;;;;21.70;81.30;;;;;;5092433;28;19918;-88
2023/06/21 06:06:09;;;;;;;;;;;21.70;81.10;;;;;;5093593;28;19990;-88
2023/06/21 06:08:34;;;;;;;;;;;21.70;81.20;;;;;;5092903;28;20373;-87
2023/06/21 06:11:03;;;;;;;;;;;21.70;81.20;;;;;;5079799;28;19916;-87
2023/06/21 06:13:28;;;;;;;;;;;21.70;80.90;;;;;;5089262;28;19968;-87
2023/06/21 06:15:54;;;;;;;;;;;21.60;81.10;;;;;;5090900;28;19911;-87
2023/06/21 06:18:19;;;;;;;;;;;21.80;81.30;;;;;;5091104;28;20044;-86
2023/06/21 06:20:45;;;;;;;;;;;21.80;80.90;;;;;;5093953;28;19916;-86
2023/06/21 06:23:11;;;;;;;;;;;21.80;80.50;;;;;;5123182;28;19923;-86
2023/06/21 06:25:36;;;;;;;;;;;21.80;81.00;;;;;;5119713;28;19904;-87
2023/06/21 06:28:02;;;;;;;;;;;21.90;80.50;;;;;;5132621;27;19914;-87
2023/06/21 06:30:28;;;;;;;;;;;21.80;80.70;;;;;;5104598;28;19919;-86
2023/06/21 06:32:53;;;;;;;;;;;22.00;80.50;;;;;;5113576;28;19991;-86
2023/06/21 06:35:18;;;;;;;;;;;22.00;80.40;;;;;;5094462;28;19912;-87
2023/06/21 06:37:44;;;;;;;;;;;22.00;80.30;;;;;;5113175;28;20302;-86
2023/06/21 06:40:10;;;;;;;;;;;22.00;80.50;;;;;;5095720;28;19988;-87
2023/06/21 06:42:35;;;;;;;;;;;22.10;79.90;;;;;;5092677;28;19939;-87
2023/06/21 06:45:02;;;;;;;;;;;22.10;79.90;;;;;;5093629;28;19967;-87
2023/06/21 06:47:29;;;;;;;;;;;22.10;79.50;;;;;;5096758;28;19969;-87
2023/06/21 06:49:55;;;;;;;;;;;22.30;79.50;;;;;;5110434;28;19915;-86
2023/06/21 06:52:20;;;;;;;;;;;22.30;78.60;;;;;;5092749;28;19918;-86
2023/06/21 06:54:46;;;;;;;;;;;22.40;79.20;;;;;;5110155;28;19912;-87
2023/06/21 06:57:11;;;;;;;;;;;22.50;78.90;;;;;;5094152;28;19911;-86
2023/06/21 06:59:37;;;;;;;;;;;22.60;78.10;;;;;;5113015;28;20349;-87
2023/06/21 07:02:02;;;;;;;;;;;22.70;77.70;;;;;;5092362;28;19942;-86
2023/06/21 07:04:28;;;;;;;;;;;22.70;78.10;;;;;;5093470;28;20272;-87
2023/06/21 07:06:54;;;;;;;;;;;22.70;77.50;;;;;;5095284;28;20403;-87
2023/06/21 07:09:19;;;;;;;;;;;22.90;77.00;;;;;;5094933;28;19955;-87
2023/06/21 07:11:45;;;;;;;;;;;23.00;76.80;;;;;;5113126;28;19919;-87
2023/06/21 07:14:10;;;;;;;;;;;23.00;77.30;;;;;;5094593;28;19912;-87
2023/06/21 07:16:39;;;;;;;;;;;23.00;76.90;;;;;;5111793;28;20010;-87
2023/06/21 07:19:05;;;;;;;;;;;23.00;77.00;;;;;;5090806;28;20037;-85
2023/06/21 07:21:30;;;;;;;;;;;23.00;76.80;;;;;;5095054;28;19943;-85
2023/06/21 07:23:56;;;;;;;;;;;23.00;77.00;;;;;;5109423;28;20399;-86
2023/06/21 07:26:21;;;;;;;;;;;22.90;76.90;;;;;;5093840;28;19912;-86
2023/06/21 07:28:47;;;;;;;;;;;22.90;76.60;;;;;;5094532;28;19931;-86
2023/06/21 07:31:12;;;;;;;;;;;22.80;77.10;;;;;;5096494;28;19915;-86
2023/06/21 07:33:38;;;;;;;;;;;22.80;77.00;;;;;;5117004;28;20484;-88
2023/06/21 07:36:03;;;;;;;;;;;22.70;77.40;;;;;;5114438;28;19912;-90
2023/06/21 07:38:29;;;;;;;;;;;22.70;77.40;;;;;;5097117;28;19912;-90
2023/06/21 07:40:54;;;;;;;;;;;22.70;77.60;;;;;;5095139;28;20371;-90
2023/06/21 07:43:20;;;;;;;;;;;22.60;77.30;;;;;;5096870;28;19911;-89
2023/06/21 07:45:45;;;;;;;;;;;22.80;77.60;;;;;;5115340;28;19914;-88
2023/06/21 07:48:11;;;;;;;;;;;22.80;77.60;;;;;;5097857;28;19912;-89
2023/06/21 07:50:36;;;;;;;;;;;22.80;77.00;;;;;;5096440;28;19912;-87
2023/06/21 07:53:08;;;;;;;;;;;22.90;76.70;;;;;;5115094;28;19911;-88
2023/06/21 07:55:34;;;;;;;;;;;22.90;76.90;;;;;;5115871;28;19916;-87
2023/06/21 07:57:59;;;;;;;;;;;23.00;76.90;;;;;;5113286;28;20344;-85
2023/06/21 08:00:25;;;;;;;;;;;23.30;76.40;;;;;;5090916;28;20537;-86
2023/06/21 08:02:52;;;;;;;;;;;23.60;75.00;;;;;;5108033;28;19999;-86
2023/06/21 08:05:18;;;;;;;;;;;23.80;74.10;;;;;;5091868;28;19916;-87
2023/06/21 08:07:43;;;;;;;;;;;24.10;73.00;;;;;;5108236;28;19972;-85
2023/06/21 08:10:09;;;;;;;;;;;24.30;72.20;;;;;;5092221;28;19935;-87
2023/06/21 08:12:35;;;;;;;;;;;24.30;71.60;;;;;;5091060;28;19912;-87
2023/06/21 08:15:00;;;;;;;;;;;24.40;72.00;;;;;;5088932;28;20306;-85
2023/06/21 08:17:26;;;;;;;;;;;24.20;71.70;;;;;;5109407;28;19912;-87
2023/06/21 08:19:51;;;;;;;;;;;24.20;71.40;;;;;;5109827;28;20293;-88
2023/06/21 08:22:17;;;;;;;;;;;24.20;72.40;;;;;;5095920;28;19912;-89
2023/06/21 08:24:42;;;;;;;;;;;24.30;72.40;;;;;;5101710;28;19916;-89
2023/06/21 08:27:08;;;;;;;;;;;24.40;72.20;;;;;;5097604;28;20431;-89
2023/06/21 08:29:33;;;;;;;;;;;24.40;72.10;;;;;;5095602;28;19998;-88
2023/06/21 08:31:59;;;;;;;;;;;24.50;71.20;;;;;;5115474;28;20289;-88
2023/06/21 08:34:24;;;;;;;;;;;24.70;70.00;;;;;;5090135;28;19911;-88
2023/06/21 08:36:50;;;;;;;;;;;24.90;70.40;;;;;;5102672;28;22248;-88
2023/06/21 08:39:15;;;;;;;;;;;25.00;69.40;;;;;;5089168;28;19916;-89
2023/06/21 08:41:41;;;;;;;;;;;25.00;68.90;;;;;;5093262;28;20384;-89
2023/06/21 08:44:06;;;;;;;;;;;24.90;68.70;;;;;;5092598;28;20397;-88
2023/06/21 08:46:33;;;;;;;;;;;24.80;69.30;;;;;;5089279;28;20385;-87
2023/06/21 08:49:00;;;;;;;;;;;24.90;69.70;;;;;;5115002;28;19912;-89
2023/06/21 08:51:25;;;;;;;;;;;24.70;69.50;;;;;;5096844;28;19919;-88
2023/06/21 08:53:57;;;;;;;;;;;24.60;69.20;;;;;;5116285;28;19912;-89
2023/06/21 08:56:23;;;;;;;;;;;24.50;69.90;;;;;;5087754;28;19920;-88
2023/06/21 08:58:57;;;;;;;;;;;24.60;69.40;;;;;;5099675;28;19914;-89
2023/06/21 09:01:23;;;;;;;;;;;24.70;69.50;;;;;;5096021;28;19916;-88
2023/06/21 09:04:09;;;;;;;;;;;25.00;68.90;;;;;;5096466;28;19918;-88
2023/06/21 09:06:35;;;;;;;;;;;25.00;67.90;;;;;;5086839;28;19920;-89
2023/06/21 09:09:00;;;;;;;;;;;25.00;68.50;;;;;;5094119;28;19916;-88
2023/06/21 09:11:26;;;;;;;;;;;24.90;67.60;;;;;;5086930;28;19919;-88
2023/06/21 09:13:52;;;;;;;;;;;24.90;67.50;;;;;;5091803;28;20007;-87
2023/06/21 09:16:19;;;;;;;;;;;24.90;67.50;;;;;;5084952;28;20661;-87
2023/06/21 09:18:45;;;;;;;;;;;25.00;67.00;;;;;;5090866;28;19920;-87
2023/06/21 09:21:11;;;;;;;;;;;24.90;66.00;;;;;;5090763;28;20296;-88
2023/06/21 09:23:40;;;;;;;;;;;24.90;66.00;;;;;;5090079;28;19916;-87
2023/06/21 09:26:06;;;;;;;;;;;24.90;66.30;;;;;;5091835;28;19908;-88
2023/06/21 09:28:32;;;;;;;;;;;25.00;66.70;;;;;;5096857;28;19907;-88
2023/06/21 09:30:58;;;;;;;;;;;25.00;66.70;;;;;;5103564;28;20006;-85
2023/06/21 09:33:24;;;;;;;;;;;25.00;66.80;;;;;;5100497;28;19965;-85
2023/06/21 09:35:50;;;;;;;;;;;25.10;67.00;;;;;;5088656;28;19999;-86
2023/06/21 09:38:36;;;;;;;;;;;25.10;66.80;;;;;;5084034;28;20007;-87
2023/06/21 09:41:02;;;;;;;;;;;25.20;65.60;;;;;;5087460;28;19915;-86
2023/06/21 09:46:04;;;;;;;;;;;25.60;64.30;;;;;;5067068;28;19931;-81
2023/06/21 09:48:37;;;;;;;;;;;26.00;63.70;;;;;;5075849;28;19981;-82
2023/06/21 09:51:04;;;;;;;;;;;26.00;63.30;;;;;;5054450;28;19924;-84
2023/06/21 09:53:29;;;;;;;;;;;26.00;63.00;;;;;;5065810;28;19912;-84
2023/06/21 09:56:01;;;;;;;;;;;26.00;63.10;;;;;;5049395;28;19920;-84
2023/06/21 09:58:27;;;;;;;;;;;26.00;61.80;;;;;;5046984;28;19921;-84
2023/06/21 10:00:54;;;;;;;;;;;26.00;62.40;;;;;;5041488;28;19929;-84
2023/06/21 10:03:22;;;;;;;;;;;26.00;63.70;;;;;;5046990;28;19913;-83
2023/06/21 10:05:53;;;;;;;;;;;26.00;62.20;;;;;;5047432;28;19921;-84
2023/06/21 10:08:22;;;;;;;;;;;26.00;61.60;;;;;;5044989;28;19913;-84
2023/06/21 10:10:47;;;;;;;;;;;25.90;62.00;;;;;;5063635;28;19925;-81
2023/06/21 10:13:13;;;;;;;;;;;25.90;62.40;;;;;;5060956;28;19972;-85
2023/06/21 10:15:38;;;;;;;;;;;25.90;62.90;;;;;;5045412;28;19916;-83
2023/06/21 10:18:09;;;;;;;;;;;25.90;63.60;;;;;;5058485;28;21167;-84
2023/06/21 10:20:35;;;;;;;;;;;25.80;64.10;;;;;;5050510;28;19924;-83
2023/06/21 10:23:02;;;;;;;;;;;25.80;64.20;;;;;;5072226;28;19920;-79
2023/06/21 10:25:28;;;;;;;;;;;25.80;64.50;;;;;;5047163;28;19928;-79
2023/06/21 10:27:55;;;;;;;;;;;25.70;65.00;;;;;;5065512;28;20272;-79
2023/06/21 10:30:22;;;;;;;;;;;25.80;64.70;;;;;;5056892;28;19989;-79
2023/06/21 10:32:48;;;;;;;;;;;25.70;64.40;;;;;;5068731;28;19913;-79
2023/06/21 10:35:16;;;;;;;;;;;25.80;64.70;;;;;;5072297;28;20275;-79
2023/06/21 10:37:48;;;;;;;;;;;25.90;64.80;;;;;;5071056;28;19912;-83
2023/06/21 10:40:14;;;;;;;;;;;26.00;64.30;;;;;;5066572;28;19916;-84
2023/06/21 10:42:40;;;;;;;;;;;26.00;63.20;;;;;;5048244;28;19955;-84
2023/06/21 10:45:06;;;;;;;;;;;26.20;62.20;;;;;;5052756;28;19928;-84
2023/06/21 10:47:32;;;;;;;;;;;26.10;61.40;;;;;;5050138;28;19927;-84
2023/06/21 10:49:59;;;;;;;;;;;26.10;60.40;;;;;;5055678;28;19917;-85
2023/06/21 10:52:26;;;;;;;;;;;25.90;60.50;;;;;;5069830;28;19912;-84
2023/06/21 10:54:53;;;;;;;;;;;25.90;60.90;;;;;;5067385;28;20264;-84
2023/06/21 10:57:19;;;;;;;;;;;25.80;60.90;;;;;;5051277;28;19912;-82
2023/06/21 10:59:45;;;;;;;;;;;25.80;61.70;;;;;;5054971;28;19980;-83
2023/06/21 11:02:11;;;;;;;;;;;25.90;61.90;;;;;;5068064;28;19912;-83
2023/06/21 11:04:55;;;;;;;;;;;26.00;60.60;;;;;;5062989;28;21188;-83
2023/06/21 11:07:24;;;;;;;;;;;26.20;60.20;;;;;;5051617;28;19927;-83
2023/06/21 11:09:52;;;;;;;;;;;26.50;60.00;;;;;;5064495;28;21289;-83
2023/06/21 11:12:20;;;;;;;;;;;26.60;60.10;;;;;;5049905;28;19916;-84
2023/06/21 11:14:46;;;;;;;;;;;26.90;58.50;;;;;;5042522;28;19913;-85
2023/06/21 11:17:12;;;;;;;;;;;27.00;57.60;;;;;;5045461;28;19920;-86
2023/06/21 11:19:37;;;;;;;;;;;27.10;55.80;;;;;;5049114;28;20282;-88
2023/06/21 11:22:16;;;;;;;;;;;27.20;56.60;;;;;;5066802;28;19917;-83
2023/06/21 11:25:00;;;;;;;;;;;27.30;56.90;;;;;;5075347;28;20695;-78
2023/06/21 11:27:26;;;;;;;;;;;27.40;55.50;;;;;;5079903;28;19980;-82
2023/06/21 11:29:59;;;;;;;;;;;27.40;55.30;;;;;;5061340;28;19936;-82
2023/06/21 11:32:26;;;;;;;;;;;27.20;56.10;;;;;;5050417;28;20331;-87
2023/06/21 11:34:56;;;;;;;;;;;27.20;55.80;;;;;;5073783;28;20003;-85
2023/06/21 11:37:41;;;;;;;;;;;27.10;55.50;;;;;;5053009;28;19913;-87
2023/06/21 11:40:10;;;;;;;;;;;26.80;55.60;;;;;;5080228;28;19916;-85
2023/06/21 11:42:37;;;;;;;;;;;26.40;56.80;;;;;;5067611;28;19963;-84
2023/06/21 11:45:21;;;;;;;;;;;26.30;57.60;;;;;;5059124;28;20321;-84
2023/06/21 11:48:02;;;;;;;;;;;26.30;57.20;;;;;;5058323;28;19924;-84
2023/06/21 11:50:40;;;;;;;;;;;26.30;56.40;;;;;;5045972;28;19978;-84
2023/06/21 11:53:17;;;;;;;;;;;26.30;56.20;;;;;;5050160;28;19923;-82
2023/06/21 11:55:42;;;;;;;;;;;26.30;55.10;;;;;;5052567;28;19916;-85
2023/06/21 11:58:09;;;;;;;;;;;26.50;55.90;;;;;;5055899;28;19919;-85
2023/06/21 12:00:35;;;;;;;;;;;26.50;53.60;;;;;;5054090;28;19932;-82
2023/06/21 12:03:06;;;;;;;;;;;26.60;53.50;;;;;;5056480;28;19958;-80
2023/06/21 12:05:50;;;;;;;;;;;26.70;53.50;;;;;;5076473;28;19924;-79
2023/06/21 12:08:20;;;;;;;;;;;26.90;54.10;;;;;;5060262;28;19923;-79
2023/06/21 12:10:46;;;;;;;;;;;26.90;54.90;;;;;;5052420;28;19917;-79
2023/06/21 12:13:16;;;;;;;;;;;27.00;54.30;;;;;;5059525;28;19980;-79
2023/06/21 12:15:51;;;;;;;;;;;27.10;54.20;;;;;;5072366;28;19924;-81
2023/06/21 12:18:16;;;;;;;;;;;27.10;55.60;;;;;;5061615;28;20704;-79
2023/06/21 12:20:42;;;;;;;;;;;27.10;54.10;;;;;;5078040;28;19963;-79
2023/06/21 12:23:08;;;;;;;;;;;27.00;54.00;;;;;;5063235;28;19920;-80
2023/06/21 12:25:43;;;;;;;;;;;27.00;52.80;;;;;;5079829;28;19912;-80
2023/06/21 12:28:09;;;;;;;;;;;26.90;52.50;;;;;;5081988;28;19909;-83
2023/06/21 12:30:45;;;;;;;;;;;26.90;53.20;;;;;;5055703;28;19924;-83
2023/06/21 12:33:11;;;;;;;;;;;26.90;52.90;;;;;;5046952;28;19912;-86
2023/06/21 12:35:37;;;;;;;;;;;27.00;52.30;;;;;;5055842;28;20280;-85
2023/06/21 12:38:09;;;;;;;;;;;27.20;53.10;;;;;;5070746;28;19916;-87
2023/06/21 12:40:35;;;;;;;;;;;27.40;51.40;;;;;;5055777;28;20013;-86
2023/06/21 12:43:01;;;;;;;;;;;27.50;50.80;;;;;;5040804;28;19909;-85
2023/06/21 12:45:26;;;;;;;;;;;27.50;51.20;;;;;;5053010;28;20367;-89
2023/06/21 12:47:54;;;;;;;;;;;27.60;50.60;;;;;;5072456;28;19909;-87
2023/06/21 12:50:20;;;;;;;;;;;27.50;50.50;;;;;;5050450;28;19920;-86
2023/06/21 12:52:57;;;;;;;;;;;27.60;50.30;;;;;;5052776;28;19916;-86
2023/06/21 12:55:23;;;;;;;;;;;27.70;50.30;;;;;;5047078;28;19912;-85
2023/06/21 12:57:48;;;;;;;;;;;27.70;49.90;;;;;;5056364;28;20011;-87
2023/06/21 13:00:14;;;;;;;;;;;27.60;50.20;;;;;;5052093;28;19937;-87
2023/06/21 13:02:39;;;;;;;;;;;27.60;51.30;;;;;;5054378;28;19917;-90
2023/06/21 13:05:05;;;;;;;;;;;27.60;50.20;;;;;;5052022;28;20385;-88
2023/06/21 13:07:30;;;;;;;;;;;27.60;50.90;;;;;;5070561;28;19913;-85
2023/06/21 13:09:56;;;;;;;;;;;27.70;51.20;;;;;;5072047;28;19912;-84
2023/06/21 13:12:22;;;;;;;;;;;27.60;51.50;;;;;;5069140;28;19923;-88
2023/06/21 13:14:48;;;;;;;;;;;27.80;50.80;;;;;;5050274;28;19912;-86
2023/06/21 13:17:14;;;;;;;;;;;27.90;50.30;;;;;;5046156;28;19912;-86
2023/06/21 13:19:39;;;;;;;;;;;27.70;50.70;;;;;;5066442;28;19917;-86
2023/06/21 13:22:05;;;;;;;;;;;27.70;51.00;;;;;;5046183;28;20007;-87
2023/06/21 13:24:32;;;;;;;;;;;27.80;51.40;;;;;;5049079;28;20280;-89
2023/06/21 13:26:58;;;;;;;;;;;28.00;49.80;;;;;;5067322;28;19919;-81
2023/06/21 13:29:23;;;;;;;;;;;27.90;50.30;;;;;;5055400;28;19916;-80
2023/06/21 13:31:52;;;;;;;;;;;27.90;49.90;;;;;;5056213;28;20023;-82
2023/06/21 13:34:18;;;;;;;;;;;27.60;50.70;;;;;;5066857;28;20343;-84
2023/06/21 13:36:43;;;;;;;;;;;27.60;50.70;;;;;;5048847;28;19912;-82
2023/06/21 13:39:09;;;;;;;;;;;27.70;49.70;;;;;;5046720;28;19920;-85
2023/06/21 13:41:34;;;;;;;;;;;27.70;50.60;;;;;;5046296;28;19912;-83
2023/06/21 13:44:00;;;;;;;;;;;27.70;50.30;;;;;;5074381;28;19980;-80
2023/06/21 13:46:25;;;;;;;;;;;27.80;49.30;;;;;;5046591;28;20058;-79
2023/06/21 13:48:51;;;;;;;;;;;27.80;50.80;;;;;;5079468;28;19916;-78
2023/06/21 13:51:16;;;;;;;;;;;28.00;50.30;;;;;;5055493;28;19965;-81
2023/06/21 13:53:44;;;;;;;;;;;27.90;50.70;;;;;;5047150;28;20007;-80
2023/06/21 13:56:09;;;;;;;;;;;28.00;50.40;;;;;;5052329;28;19909;-81
2023/06/21 13:58:35;;;;;;;;;;;27.90;50.60;;;;;;5069053;28;20265;-80
2023/06/21 14:01:01;;;;;;;;;;;27.90;50.70;;;;;;5068392;28;20203;-79
2023/06/21 14:03:26;;;;;;;;;;;27.90;51.10;;;;;;5063752;28;19919;-79
2023/06/21 14:05:53;;;;;;;;;;;27.90;50.30;;;;;;5067979;28;19916;-77
2023/06/21 14:08:18;;;;;;;;;;;27.80;50.00;;;;;;5055063;28;19913;-78
2023/06/21 14:10:44;;;;;;;;;;;27.80;50.20;;;;;;5063108;28;19912;-75
2023/06/21 14:13:12;;;;;;;;;;;27.70;49.80;;;;;;5046141;28;19966;-76
2023/06/21 14:15:37;;;;;;;;;;;27.90;50.50;;;;;;5063930;28;19923;-78
2023/06/21 14:18:03;;;;;;;;;;;27.90;50.40;;;;;;5048046;28;19924;-81